Brussels, Wisconsin
Current Conditions -  °F | °C
As of 3:35 AM on Sunday 26 Oct 2014 (Local Time) from KSUE Reporting Station
Clear Clear  
Wind Chill: 43°   Ceiling: Unl
Heat Index: 46°   Visibility: 10mi
Dew Point: 30°   Wind: 7mph
Humidity: 53%   Direction: 280°W
Pressure: 29.93"   Gusts: NA
Location:  44.74°N, 87.62°W
Report Text: KSUE 260835Z AUTO 28006KT 10SM CLR 08/M01 A2993 RMK AO1
Loading
Personal Weather Stations






























Interactive Weather Map
Tropical Storm Tracking
New forecast layout! Learn more

10-Day Weather Forecast

Advertisements
Track Severe Weather on mobile